Latest Weather Observations for Edinburgh

IDS60801

Issued at 2:05 pm CDT Tuesday 21 October 2014 (issued every 30 minutes, with the page automatically refreshed every 10 minutes)

About weather observations | Map of weather stations | Latest weather observations for SA | Other Formats
Station Details ID: 023083 Name: EDINBURGH RAAF Lat: -34.71 Lon: 138.62 Height: 16.54 m
Data from the previous 72 hours. | See also: Recent months at Edinburgh
Date/Time
CDT
Temp
°C
App
Temp
°C
Dew
Point
Rel
Hum
%
Delta-T
°C
Wind Press
QNH
hPa
Press
MSL
hPa
Rain
since 9 am
mm
Dir
 
Spd
km/h
Gust
km/h
Spd
kts
Gust
kts
21/02:00pm 37.3 33.1 1.9 11 18.2 SW 13 17 7 9 1017.4 1017.3 0.0
21/01:30pm 36.4 31.4 1.2 11 17.8 ENE 17 19 9 10 1017.6 1017.5 0.0
21/01:00pm 36.8 29.5 0.2 10 18.3 NE 28 37 15 20 1018.1 1018.0 0.0
21/12:30pm 35.4 28.4 1.7 12 17.1 ENE 28 39 15 21 1018.4 1018.3 0.0
21/12:00pm 34.7 27.0 2.3 13 16.5 NE 32 41 17 22 1019.0 1018.9 0.0
21/11:30am 33.7 26.8 2.5 14 15.9 NE 28 35 15 19 1019.2 1019.1 0.0
21/11:00am 32.9 24.6 1.9 14 15.6 NE 35 44 19 24 1019.5 1019.4 0.0
21/10:30am 30.5 22.2 1.9 16 14.1 NE 35 44 19 24 1019.8 1019.7 0.0
21/10:00am 29.3 20.2 1.7 17 13.5 NE 39 48 21 26 1020.0 1019.9 0.0
21/09:30am 29.1 20.1 2.4 18 13.2 NE 39 50 21 27 1019.8 1019.7 0.0
21/09:00am 27.9 18.9 2.2 19 12.5 NE 39 50 21 27 1019.9 1019.8 0.0
21/08:30am 26.7 18.1 2.6 21 11.7 NE 37 46 20 25 1019.8 1019.7 0.0
21/08:00am 25.7 16.6 1.8 21 11.4 NE 39 52 21 28 1019.7 1019.6 0.0
21/07:30am 25.1 16.8 1.9 22 11.0 NE 35 44 19 24 1019.5 1019.4 0.0
21/07:00am 24.8 16.8 1.7 22 11.0 NE 33 44 18 24 1019.2 1019.1 0.0
21/06:30am 24.6 16.2 1.5 22 10.9 NE 35 46 19 25 1019.0 1018.9 0.0
21/06:00am 24.6 16.5 0.8 21 11.1 NE 33 46 18 25 1018.8 1018.7 0.0
21/05:30am 24.5 16.6 0.8 21 11.0 NE 32 44 17 24 1018.6 1018.5 0.0
21/05:00am 24.7 16.8 0.9 21 11.1 NE 32 43 17 23 1018.4 1018.3 0.0
21/04:30am 24.4 17.3 1.3 22 10.8 NE 28 37 15 20 1018.3 1018.2 0.0
21/04:00am 24.8 17.8 1.7 22 11.0 ENE 28 37 15 20 1018.4 1018.3 0.0
21/03:30am 24.6 17.6 2.1 23 10.7 ENE 28 35 15 19 1018.8 1018.7 0.0
21/03:00am 22.7 18.2 2.2 26 9.6 ENE 15 19 8 10 1019.0 1018.9 0.0
21/02:30am 24.2 18.0 2.4 24 10.4 ENE 24 32 13 17 1019.2 1019.1 0.0
21/02:00am 24.7 19.3 2.2 23 10.8 ENE 20 28 11 15 1019.4 1019.3 0.0
21/01:30am 25.1 19.2 1.9 22 11.0 ENE 22 32 12 17 1019.6 1019.5 0.0
21/01:00am 25.4 19.5 1.5 21 11.3 ENE 22 32 12 17 1019.9 1019.8 0.0
21/12:30am 25.7 19.8 1.8 21 11.4 ENE 22 32 12 17 1020.2 1020.1 0.0
21/12:00am 26.2 19.9 1.5 20 11.8 ENE 24 33 13 18 1020.4 1020.3 0.0
 
Date/Time
CDT
Temp
°C
App
Temp
°C
Dew
Point
Rel
Hum
%
Delta-T
°C
Wind Press
QNH
hPa
Press
MSL
hPa
Rain
since 9 am
mm
Dir
 
Spd
km/h
Gust
km/h
Spd
kts
Gust
kts
20/11:30pm 26.4 20.9 1.7 20 11.8 E 20 35 11 19 1020.6 1020.6 0.0
20/11:00pm 26.1 19.9 2.1 21 11.6 E 24 37 13 20 1020.6 1020.6 0.0
20/10:30pm 26.1 20.4 2.7 22 11.4 E 22 35 12 19 1021.0 1021.0 0.0
20/10:00pm 26.2 20.2 3.4 23 11.3 E 24 35 13 19 1021.1 1021.1 0.0
20/09:30pm 26.4 20.4 3.6 23 11.3 E 24 33 13 18 1021.1 1021.1 0.0
20/09:00pm 26.7 21.2 3.9 23 11.4 E 22 39 12 21 1020.8 1020.8 0.0
20/08:30pm 27.0 22.0 4.7 24 11.3 E 20 32 11 17 1020.5 1020.4 0.0
20/08:00pm 27.7 22.7 4.7 23 11.7 E 20 28 11 15 1020.3 1020.2 0.0
20/07:30pm 28.2 24.2 5.1 23 11.9 E 15 20 8 11 1020.2 1020.1 0.0
20/07:00pm 29.3 24.5 5.4 22 12.5 ESE 20 28 11 15 1019.8 1019.7 0.0
20/06:30pm 30.2 25.4 4.8 20 13.2 E 19 28 10 15 1019.6 1019.5 0.0
20/06:00pm 31.3 26.4 4.2 18 14.0 ENE 19 26 10 14 1019.6 1019.5 0.0
20/05:30pm 31.9 26.3 1.1 14 15.1 ENE 20 28 11 15 1019.5 1019.4 0.0
20/05:00pm 32.7 27.5 2.7 15 15.3 ENE 19 26 10 14 1019.5 1019.4 0.0
20/04:30pm 32.4 27.4 3.4 16 14.9 E 19 26 10 14 1019.5 1019.4 0.0
20/04:00pm 32.7 27.7 4.5 17 14.8 ESE 20 32 11 17 1019.6 1019.5 0.0
20/03:30pm 32.6 28.1 4.4 17 14.7 E 17 24 9 13 1019.9 1019.8 0.0
20/03:00pm 32.7 26.1 -0.4 12 16.0 NNE 24 28 13 15 1020.4 1020.3 0.0
20/02:30pm 32.5 26.0 0.6 13 15.6 NNE 24 32 13 17 1021.0 1021.0 0.0
20/02:00pm 32.0 25.6 1.2 14 15.2 NNE 24 32 13 17 1021.5 1021.5 0.0
20/01:30pm 31.3 26.3 3.4 17 14.2 ENE 19 30 10 16 1021.8 1021.8 0.0
20/01:00pm 30.0 26.5 5.3 21 12.9 E 13 19 7 10 1022.2 1022.2 0.0
20/12:30pm 28.3 24.9 7.5 27 11.1 E 15 22 8 12 1022.6 1022.6 0.0
20/12:00pm 26.8 22.5 6.8 28 10.5 ENE 19 24 10 13 1023.0 1023.0 0.0
20/11:30am 25.7 21.5 7.3 31 9.7 ENE 19 28 10 15 1023.5 1023.5 0.0
20/11:00am 24.4 20.8 6.6 32 9.2 E 15 22 8 12 1023.9 1023.9 0.0
20/10:30am 23.1 19.2 7.2 36 8.2 E 17 20 9 11 1024.2 1024.2 0.0
20/10:00am 22.3 18.7 8.4 41 7.3 E 17 24 9 13 1024.3 1024.3 0.0
20/09:30am 21.0 17.1 8.6 45 6.5 E 19 24 10 13 1024.3 1024.3 0.0
20/09:00am 19.3 14.4 8.3 49 5.7 E 24 33 13 18 1024.3 1024.3 0.0
20/08:30am 17.9 12.9 8.2 53 4.9 E 24 33 13 18 1024.3 1024.3 0.0
20/08:00am 17.3 11.9 7.9 54 4.8 E 26 35 14 19 1023.9 1023.9 0.0
20/07:30am 14.7 14.1 9.1 69 2.8 S 2 6 1 3 1024.0 1024.0 0.0
20/07:00am 13.0 12.5 7.9 71 2.5 CALM 0 0 0 0 1023.9 1023.9 0.0
20/06:30am 12.0 10.4 7.9 76 2.0 W 6 7 3 4 1023.7 1023.7 0.0
20/06:00am 12.3 10.4 7.4 72 2.4 W 7 9 4 5 1023.4 1023.4 0.0
20/05:30am 13.0 11.2 7.9 71 2.5 W 7 9 4 5 1023.1 1023.1 0.0
20/05:00am 14.1 12.8 7.6 65 3.2 NE 4 7 2 4 1023.0 1023.0 0.0
20/04:30am 13.3 11.8 8.4 72 2.4 WNW 6 9 3 5 1022.7 1022.7 0.0
20/04:00am 15.2 13.7 9.1 67 3.1 SE 7 11 4 6 1022.5 1022.5 0.0
20/03:30am 15.6 12.7 9.5 67 3.1 SE 15 20 8 11 1022.6 1022.6 0.0
20/03:00am 15.7 13.9 9.6 67 3.2 SE 9 19 5 10 1022.8 1022.8 0.0
20/02:30am 16.0 14.2 9.4 65 3.4 SE 9 13 5 7 1022.9 1022.9 0.0
20/02:00am 16.0 14.2 9.4 65 3.4 SSE 9 13 5 7 1022.8 1022.8 0.0
20/01:30am 16.5 13.5 9.4 63 3.7 SSE 15 19 8 10 1022.8 1022.8 0.0
20/01:00am 16.6 14.7 9.1 61 3.9 SSE 9 13 5 7 1022.9 1022.9 0.0
20/12:30am 17.4 15.3 8.3 55 4.6 ESE 9 15 5 8 1022.9 1022.9 0.0
20/12:00am 18.0 16.2 8.0 52 5.1 ESE 7 17 4 9 1022.8 1022.8 0.0
 
Date/Time
CDT
Temp
°C
App
Temp
°C
Dew
Point
Rel
Hum
%
Delta-T
°C
Wind Press
QNH
hPa
Press
MSL
hPa
Rain
since 9 am
mm
Dir
 
Spd
km/h
Gust
km/h
Spd
kts
Gust
kts
19/11:30pm 18.2 15.9 7.3 49 5.5 ESE 9 17 5 9 1022.6 1022.6 0.0
19/11:00pm 18.2 15.6 7.6 50 5.4 ESE 11 19 6 10 1022.4 1022.4 0.0
19/10:30pm 19.1 16.2 6.6 44 6.2 ESE 11 19 6 10 1022.3 1022.3 0.0
19/10:00pm 19.3 15.8 5.4 40 6.8 SE 13 20 7 11 1022.3 1022.3 0.0
19/09:30pm 18.9 15.9 7.7 48 5.7 SE 13 22 7 12 1022.2 1022.2 0.0
19/09:00pm 18.6 16.3 9.1 54 5.0 SE 11 19 6 10 1022.1 1022.1 0.0
19/08:30pm 19.1 15.8 9.6 54 5.0 SSE 17 22 9 12 1021.7 1021.7 0.0
19/08:00pm 21.0 18.8 9.3 47 6.2 ESE 11 15 6 8 1021.1 1021.1 0.0
19/07:30pm 22.2 19.5 10.4 47 6.4 ESE 15 26 8 14 1020.6 1020.6 0.0
19/07:00pm 26.1 22.4 10.3 37 8.8 SE 20 26 11 14 1020.2 1020.1 0.0
19/06:30pm 27.6 23.5 6.4 26 11.1 SSW 17 20 9 11 1019.7 1019.6 0.0
19/06:00pm 28.1 23.4 5.0 23 11.9 SSW 19 24 10 13 1019.5 1019.4 0.0
19/05:30pm 29.6 23.6 1.1 16 13.8 SSW 22 30 12 16 1019.4 1019.3 0.0
19/05:00pm 29.7 23.1 -0.6 14 14.3 SSW 24 30 13 16 1019.3 1019.2 0.0
19/04:30pm 31.3 24.9 -1.5 12 15.4 SSW 22 32 12 17 1019.2 1019.1 0.0
19/04:00pm 30.7 24.0 -0.8 13 14.9 SSW 24 33 13 18 1019.4 1019.3 0.0
19/03:30pm 30.6 23.9 -0.9 13 14.8 SSW 24 33 13 18 1019.5 1019.4 0.0
19/03:00pm 31.0 23.2 -0.6 13 15.0 SW 30 37 16 20 1019.6 1019.5 0.0
19/02:30pm 31.1 23.9 0.5 14 14.8 SW 28 35 15 19 1019.7 1019.6 0.0
19/02:03pm 30.9 22.5 -0.7 13 15.0 WSW 33 52 18 28 1019.7 1019.6 0.0
19/02:00pm 33.1 24.9 -4.0 9 16.9 WNW 30 37 16 20 1019.6 1019.5 0.0
19/01:30pm 33.3 24.7 -3.8 9 17.0 W 32 43 17 23 1019.6 1019.5 0.0
19/01:00pm 33.8 25.3 -3.5 9 17.3 W 32 43 17 23 1019.7 1019.6 0.0
19/12:30pm 33.1 24.3 -4.0 9 16.9 WNW 33 44 18 24 1019.9 1019.8 0.0
19/12:00pm 32.6 23.4 -4.3 9 16.6 WNW 35 48 19 26 1020.0 1019.9 0.0
19/11:30am 32.9 24.1 -4.1 9 16.8 NW 33 43 18 23 1020.2 1020.1 0.0
19/11:00am 31.1 24.2 -2.8 11 15.6 NW 24 32 13 17 1020.4 1020.3 0.0
19/10:30am 29.6 23.1 -2.8 12 14.6 NW 22 30 12 16 1020.5 1020.4 0.0
19/10:00am 30.0 23.5 -2.5 12 14.9 NW 22 30 12 16 1020.5 1020.4 0.0
19/09:30am 26.5 21.9 -1.3 16 12.6 N 13 20 7 11 1020.5 1020.4 0.0
19/09:00am 24.3 19.1 -0.1 20 11.1 N 17 20 9 11 1020.5 1020.4 0.0
19/08:30am 23.1 18.1 -1.1 20 10.7 N 15 20 8 11 1020.4 1020.3 0.0
19/08:00am 21.5 16.3 0.1 24 9.6 NNE 17 20 9 11 1019.9 1019.8 0.0
19/07:30am 18.8 14.0 -0.1 28 8.2 NE 15 19 8 10 1019.5 1019.4 0.0
19/07:00am 18.5 13.6 -0.8 27 8.3 NE 15 17 8 9 1019.3 1019.2 0.0
19/06:30am 19.3 13.9 -1.2 25 8.8 NE 17 22 9 12 1018.6 1018.5 0.0
19/06:00am 19.4 13.7 -1.1 25 8.8 NE 19 22 10 12 1018.1 1018.0 0.0
19/05:30am 19.6 13.9 -0.9 25 8.8 NE 19 24 10 13 1018.0 1017.9 0.0
19/05:00am 19.1 13.5 -0.3 27 8.5 NE 19 22 10 12 1017.8 1017.7 0.0
19/04:30am 18.3 13.4 -0.5 28 8.1 NE 15 20 8 11 1018.0 1017.9 0.0
19/04:00am 18.2 13.3 -0.6 28 8.1 NE 15 19 8 10 1018.1 1018.0 0.0
19/03:30am 16.7 11.9 -0.1 32 7.2 NE 15 17 8 9 1018.2 1018.1 0.0
19/03:00am 16.5 11.7 0.2 33 7.0 NE 15 17 8 9 1018.6 1018.5 0.0
19/02:30am 15.6 10.9 0.6 36 6.4 NE 15 17 8 9 1018.8 1018.7 0.0
19/02:00am 15.7 10.7 1.1 37 6.4 NE 17 19 9 10 1019.0 1018.9 0.0
19/01:30am 14.1 10.3 1.7 43 5.4 NNE 11 13 6 7 1019.1 1019.0 0.0
19/01:00am 14.2 10.4 1.8 43 5.4 NNE 11 13 6 7 1019.0 1018.9 0.0
19/12:30am 16.8 12.7 2.0 37 6.6 NE 13 15 7 8 1019.1 1019.0 0.0
19/12:00am 16.5 12.7 1.8 37 6.5 ENE 11 13 6 7 1019.2 1019.1 0.0
 
Date/Time
CDT
Temp
°C
App
Temp
°C
Dew
Point
Rel
Hum
%
Delta-T
°C
Wind Press
QNH
hPa
Press
MSL
hPa
Rain
since 9 am
mm
Dir
 
Spd
km/h
Gust
km/h
Spd
kts
Gust
kts
18/11:30pm 17.3 13.6 2.1 36 6.8 NE 11 11 6 6 1019.5 1019.4 0.0
18/11:00pm 17.9 14.2 2.2 35 7.1 NE 11 13 6 7 1019.6 1019.5 0.0
18/10:30pm 17.3 14.5 2.1 36 6.8 NE 6 7 3 4 1019.5 1019.4 0.0
18/10:00pm 20.0 17.2 1.9 30 8.3 E 6 7 3 4 1019.4 1019.3 0.0
18/09:30pm 21.4 17.2 1.6 27 9.1 S 13 19 7 10 1019.5 1019.4 0.0
18/09:00pm 20.3 17.2 1.2 28 8.6 E 7 11 4 6 1019.2 1019.1 0.0
18/08:30pm 23.4 20.4 0.5 22 10.5 NE 6 7 3 4 1019.2 1019.1 0.0
18/08:00pm 24.8 22.0 -0.4 19 11.5 NW 4 6 2 3 1018.9 1018.8 0.0
18/07:30pm 25.9 22.4 -2.7 15 12.6 WNW 6 7 3 4 1018.6 1018.5 0.0
18/07:00pm 27.4 23.1 -1.5 15 13.2 WNW 11 11 6 6 1018.4 1018.3 0.0
18/06:30pm 29.5 23.9 -2.9 12 14.6 WNW 17 20 9 11 1018.3 1018.2 0.0
18/06:00pm 31.3 26.0 -3.9 10 15.8 W 15 20 8 11 1018.3 1018.2 0.0
18/05:30pm 31.2 24.5 -4.0 10 15.8 WNW 22 30 12 16 1018.3 1018.2 0.0
18/05:00pm 32.0 23.7 -4.8 9 16.4 WNW 30 35 16 19 1018.2 1018.1 0.0
18/04:30pm 31.6 23.8 -3.7 10 16.0 W 28 39 15 21 1018.3 1018.2 0.0
18/04:00pm 31.4 22.3 -3.8 10 15.9 WNW 35 43 19 23 1018.2 1018.1 0.0
18/03:30pm 31.2 22.2 -2.7 11 15.6 W 35 43 19 23 1018.4 1018.3 0.0
18/03:00pm 31.6 21.7 -3.7 10 16.0 W 39 46 21 25 1018.7 1018.6 0.0
18/02:30pm 31.8 23.0 -1.1 12 15.6 W 35 44 19 24 1018.9 1018.8 0.0
18/02:14pm 32.2 22.9 -2.0 11 16.0 W 37 44 20 24 1018.9 1018.8 0.0

Other Formats:

Comma delimited format used in spreadsheet applications
http://www.bom.gov.au/fwo/IDS60801/IDS60801.95676.axf

JavaScript Object Notation format (JSON) in row-major order
http://www.bom.gov.au/fwo/IDS60801/IDS60801.95676.json